Time;durP1;ratioP1;P1;durP2;ratioP2;P2;SDS_P1;SDS_P2;PMS_P1;PMS_P2;Temp;Humidity;BMP_temperature;BMP_pressure;BME280_temperature;BME280_humidity;BME280_pressure;Samples;Min_cycle;Max_cycle;Signal;HPM_P1;HPM_P2
2022/04/11 00:00:21;;;;;;;8.32;1.90;;;1.00;99.90;;;;;;5112675;28;20379;-75
2022/04/11 00:02:47;;;;;;;6.60;2.13;;;1.00;99.90;;;;;;5113302;28;20040;-75
2022/04/11 00:05:13;;;;;;;7.68;2.30;;;1.00;99.90;;;;;;5114651;28;20046;-75
2022/04/11 00:07:39;;;;;;;4.07;1.60;;;0.90;99.90;;;;;;5113409;28;20038;-75
2022/04/11 00:10:05;;;;;;;3.15;1.75;;;0.90;99.90;;;;;;5113054;28;20482;-75
2022/04/11 00:12:34;;;;;;;3.65;2.00;;;0.90;99.90;;;;;;5096077;28;20042;-75
2022/04/11 00:15:00;;;;;;;3.33;1.92;;;0.90;99.90;;;;;;5112481;28;20058;-75
2022/04/11 00:17:27;;;;;;;4.25;1.48;;;0.90;99.90;;;;;;5113035;28;20044;-75
2022/04/11 00:19:52;;;;;;;5.38;2.10;;;0.90;99.90;;;;;;5095821;28;20047;-75
2022/04/11 00:22:18;;;;;;;7.75;1.90;;;0.80;99.90;;;;;;5094813;28;20035;-75
2022/04/11 00:24:44;;;;;;;5.97;1.70;;;0.90;99.90;;;;;;5114174;28;20087;-75
2022/04/11 00:27:10;;;;;;;2.95;1.92;;;0.80;99.90;;;;;;5112686;28;20047;-75
2022/04/11 00:29:36;;;;;;;4.60;1.80;;;0.80;99.90;;;;;;5112278;28;20082;-75
2022/04/11 00:32:01;;;;;;;4.28;2.47;;;0.80;99.90;;;;;;5114122;28;20487;-75
2022/04/11 00:34:27;;;;;;;6.50;1.95;;;0.80;99.90;;;;;;5114315;28;20479;-75
2022/04/11 00:36:53;;;;;;;11.30;2.08;;;0.80;99.90;;;;;;5112772;28;20491;-75
2022/04/11 00:39:19;;;;;;;3.45;2.00;;;0.80;99.90;;;;;;5112700;28;20186;-75
2022/04/11 00:41:45;;;;;;;3.80;1.70;;;0.70;99.90;;;;;;5113813;28;20054;-75
2022/04/11 00:44:11;;;;;;;3.08;1.83;;;0.70;99.90;;;;;;5112238;28;20052;-75
2022/04/11 00:46:37;;;;;;;5.25;1.60;;;0.70;99.90;;;;;;5112767;28;20107;-75
2022/04/11 00:49:02;;;;;;;5.72;2.15;;;0.70;99.90;;;;;;5112789;28;20056;-75
2022/04/11 00:51:28;;;;;;;6.88;2.67;;;0.70;99.90;;;;;;5112338;28;20047;-75
2022/04/11 00:53:58;;;;;;;8.70;2.05;;;0.70;99.90;;;;;;5113711;28;20086;-75
2022/04/11 00:56:26;;;;;;;2.85;1.80;;;0.60;99.90;;;;;;5111822;28;20514;-75
2022/04/11 00:58:52;;;;;;;4.13;2.15;;;0.60;99.90;;;;;;5113695;28;20043;-75
2022/04/11 01:01:18;;;;;;;3.28;1.75;;;0.60;99.90;;;;;;5096008;28;20073;-75
2022/04/11 01:03:44;;;;;;;5.90;2.15;;;0.60;99.90;;;;;;5112827;28;20529;-75
2022/04/11 01:06:09;;;;;;;3.55;2.05;;;0.60;99.90;;;;;;5113808;28;20053;-75
2022/04/11 01:08:36;;;;;;;7.72;2.83;;;0.60;99.90;;;;;;5095258;28;20040;-75
2022/04/11 01:11:03;;;;;;;5.03;2.08;;;0.60;99.90;;;;;;5115719;28;20048;-75
2022/04/11 01:13:29;;;;;;;2.78;2.17;;;0.60;99.90;;;;;;5118179;27;20036;-75
2022/04/11 01:16:00;;;;;;;6.72;2.10;;;0.60;99.90;;;;;;5116453;28;20142;-75
2022/04/11 01:18:27;;;;;;;4.93;1.60;;;0.60;99.90;;;;;;5116051;28;20050;-75
2022/04/11 01:20:53;;;;;;;4.75;1.80;;;0.60;99.90;;;;;;5118889;27;20040;-75
2022/04/11 01:23:20;;;;;;;5.70;2.03;;;0.50;99.90;;;;;;5113118;28;20043;-75
2022/04/11 01:25:53;;;;;;;3.13;1.50;;;0.50;99.90;;;;;;5125451;27;20371;-75
2022/04/11 01:28:20;;;;;;;6.53;2.25;;;0.50;99.90;;;;;;5116613;28;20105;-75
2022/04/11 01:30:47;;;;;;;6.13;2.72;;;0.50;99.90;;;;;;5117267;28;20050;-75
2022/04/11 01:33:28;;;;;;;5.95;2.17;;;0.50;99.90;;;;;;5115338;28;20375;-75
2022/04/11 01:35:53;;;;;;;8.98;2.10;;;0.50;99.90;;;;;;5116101;28;20167;-75
2022/04/11 01:38:20;;;;;;;4.20;2.10;;;0.50;99.90;;;;;;5115283;28;20130;-75
2022/04/11 01:40:56;;;;;;;9.73;1.95;;;0.50;99.90;;;;;;5117455;28;20494;-75
2022/04/11 01:43:23;;;;;;;5.95;2.05;;;0.50;99.90;;;;;;5117112;28;20170;-75
2022/04/11 01:45:49;;;;;;;8.48;2.17;;;0.50;99.90;;;;;;5117068;28;20040;-75
2022/04/11 01:48:16;;;;;;;6.35;2.03;;;0.50;99.90;;;;;;5116656;28;20126;-75
2022/04/11 01:50:42;;;;;;;4.10;1.80;;;0.50;99.90;;;;;;5115982;28;20055;-75
2022/04/11 01:53:13;;;;;;;4.10;1.70;;;0.50;99.90;;;;;;5115028;28;20039;-75
2022/04/11 01:55:39;;;;;;;5.97;1.85;;;0.50;99.90;;;;;;5099326;28;20077;-75
2022/04/11 01:58:06;;;;;;;5.22;1.63;;;0.50;99.90;;;;;;5115429;28;20123;-75
2022/04/11 02:00:34;;;;;;;4.68;1.77;;;0.50;99.90;;;;;;5116175;28;20043;-75
2022/04/11 02:03:01;;;;;;;9.93;1.85;;;0.40;99.90;;;;;;5116924;28;20487;-75
2022/04/11 02:05:27;;;;;;;7.85;1.77;;;0.50;99.90;;;;;;5115733;28;20478;-75
2022/04/11 02:07:54;;;;;;;5.88;1.80;;;0.40;99.90;;;;;;5115537;27;20112;-75
2022/04/11 02:10:20;;;;;;;3.67;2.78;;;0.50;99.90;;;;;;5116596;28;20051;-75
2022/04/11 02:12:47;;;;;;;7.07;2.22;;;0.40;99.90;;;;;;5116954;28;20036;-75
2022/04/11 02:15:14;;;;;;;5.93;2.05;;;0.50;99.90;;;;;;5115649;28;20122;-75
2022/04/11 02:17:40;;;;;;;2.80;1.65;;;0.50;99.90;;;;;;5115491;28;20047;-75
2022/04/11 02:20:07;;;;;;;5.15;2.33;;;0.50;99.90;;;;;;5116427;28;20043;-75
2022/04/11 02:23:05;;;;;;;3.63;1.83;;;0.50;99.90;;;;;;5114321;28;20056;-75
2022/04/11 02:25:34;;;;;;;4.82;1.85;;;0.50;99.90;;;;;;5061895;28;20135;-75
2022/04/11 02:28:00;;;;;;;3.55;1.77;;;0.50;99.90;;;;;;5111198;28;20078;-75
2022/04/11 02:30:27;;;;;;;6.78;1.83;;;0.50;99.90;;;;;;5123985;27;20126;-75
2022/04/11 02:32:54;;;;;;;3.95;1.65;;;0.50;99.90;;;;;;5115201;28;20048;-75
2022/04/11 02:35:21;;;;;;;7.22;1.70;;;0.50;99.90;;;;;;5115308;28;20043;-75
2022/04/11 02:37:47;;;;;;;2.97;1.95;;;0.50;99.90;;;;;;5116536;27;20047;-75
2022/04/11 02:40:14;;;;;;;4.47;2.00;;;0.50;99.90;;;;;;5116143;28;20043;-75
2022/04/11 02:42:44;;;;;;;9.93;2.15;;;0.40;99.90;;;;;;5097122;28;20055;-75
2022/04/11 02:45:12;;;;;;;3.72;1.70;;;0.40;99.90;;;;;;5115015;28;20050;-75
2022/04/11 02:47:38;;;;;;;7.18;2.17;;;0.40;99.90;;;;;;5097607;28;20079;-75
2022/04/11 02:50:04;;;;;;;8.70;1.77;;;0.40;99.90;;;;;;5113693;28;20151;-75
2022/04/11 02:52:30;;;;;;;3.60;1.75;;;0.40;99.90;;;;;;5115015;28;20367;-75
2022/04/11 02:54:56;;;;;;;9.15;1.88;;;0.40;99.90;;;;;;5114710;28;20046;-75
2022/04/11 02:57:23;;;;;;;6.10;1.92;;;0.40;99.90;;;;;;5113938;28;20039;-75
2022/04/11 02:59:49;;;;;;;3.60;1.40;;;0.40;99.90;;;;;;5115846;28;20422;-75
2022/04/11 03:02:15;;;;;;;5.43;1.85;;;0.40;99.90;;;;;;5114587;28;20108;-75
2022/04/11 03:04:40;;;;;;;2.78;1.52;;;0.40;99.90;;;;;;5096900;28;20044;-75
2022/04/11 03:07:06;;;;;;;3.78;1.80;;;0.40;99.90;;;;;;5088110;28;20123;-75
2022/04/11 03:09:32;;;;;;;3.60;2.00;;;0.40;99.90;;;;;;5094578;28;20425;-75
2022/04/11 03:11:58;;;;;;;4.90;1.80;;;0.40;99.90;;;;;;5102743;28;20036;-75
2022/04/11 03:14:24;;;;;;;4.43;1.98;;;0.30;99.90;;;;;;5115601;28;20405;-75
2022/04/11 03:16:50;;;;;;;8.25;1.80;;;0.40;99.90;;;;;;5113199;28;20051;-75
2022/04/11 03:19:16;;;;;;;4.35;1.70;;;0.30;99.90;;;;;;5115645;28;20050;-75
2022/04/11 03:21:42;;;;;;;7.00;1.73;;;0.30;99.90;;;;;;5115366;28;20110;-75
2022/04/11 03:24:07;;;;;;;2.53;2.05;;;0.30;99.90;;;;;;5114561;28;20455;-75
2022/04/11 03:26:33;;;;;;;5.90;2.03;;;0.40;99.90;;;;;;5096914;28;20040;-75
2022/04/11 03:28:59;;;;;;;7.55;1.92;;;0.40;99.90;;;;;;5115372;28;20052;-75
2022/04/11 03:31:25;;;;;;;7.38;1.85;;;0.40;99.90;;;;;;5113013;28;20126;-75
2022/04/11 03:33:51;;;;;;;3.67;2.50;;;0.40;99.90;;;;;;5113166;28;20047;-75
2022/04/11 03:36:18;;;;;;;13.13;2.25;;;0.40;99.90;;;;;;5114987;28;20040;-75
2022/04/11 03:38:44;;;;;;;9.95;2.03;;;0.40;99.90;;;;;;5112712;28;20054;-75
2022/04/11 03:41:10;;;;;;;12.30;3.03;;;0.40;99.90;;;;;;5115048;28;20051;-75
2022/04/11 03:43:35;;;;;;;7.28;2.15;;;0.50;99.90;;;;;;5113868;28;20081;-75
2022/04/11 03:46:01;;;;;;;6.20;2.75;;;0.50;99.90;;;;;;5113121;28;20506;-75
2022/04/11 03:48:27;;;;;;;7.07;1.98;;;0.50;99.90;;;;;;5114298;28;20048;-75
2022/04/11 03:50:53;;;;;;;8.00;2.63;;;0.60;99.90;;;;;;5113832;28;20044;-75
2022/04/11 03:53:19;;;;;;;4.13;2.10;;;0.60;99.90;;;;;;5112397;28;20048;-75
2022/04/11 03:55:45;;;;;;;7.03;2.33;;;0.60;99.90;;;;;;5113113;28;20043;-75
2022/04/11 03:58:11;;;;;;;4.88;2.38;;;0.60;99.90;;;;;;5114596;28;20051;-75
2022/04/11 04:00:37;;;;;;;3.47;2.10;;;0.60;99.90;;;;;;5114425;28;20130;-75
2022/04/11 04:03:10;;;;;;;4.78;2.17;;;0.70;99.90;;;;;;5114301;28;20046;-75
2022/04/11 04:05:43;;;;;;;7.22;2.47;;;0.70;99.90;;;;;;5114838;28;20044;-75
2022/04/11 04:08:10;;;;;;;7.68;2.65;;;0.80;99.90;;;;;;5113969;28;20047;-75
2022/04/11 04:10:36;;;;;;;8.95;2.35;;;0.80;99.90;;;;;;5113353;28;20052;-75
2022/04/11 04:13:03;;;;;;;2.83;2.22;;;0.80;99.90;;;;;;5112378;28;20094;-75
2022/04/11 04:15:29;;;;;;;4.55;2.08;;;0.90;99.90;;;;;;5114579;28;20368;-75
2022/04/11 04:17:56;;;;;;;3.72;1.90;;;0.90;99.90;;;;;;5114417;28;20046;-75
2022/04/11 04:20:26;;;;;;;5.93;2.65;;;0.90;99.90;;;;;;5113490;28;20047;-75
2022/04/11 04:22:55;;;;;;;4.90;2.38;;;1.00;99.90;;;;;;5095689;28;20043;-75
2022/04/11 04:25:22;;;;;;;7.63;2.22;;;1.00;99.90;;;;;;5113116;28;20540;-75
2022/04/11 04:27:48;;;;;;;4.13;2.25;;;1.10;99.90;;;;;;5094785;28;20545;-75
2022/04/11 04:30:14;;;;;;;5.60;2.60;;;1.10;99.90;;;;;;5113071;28;20047;-75
2022/04/11 04:32:41;;;;;;;5.10;2.80;;;1.10;99.90;;;;;;5112872;28;20036;-75
2022/04/11 04:35:08;;;;;;;5.97;2.60;;;1.20;99.90;;;;;;5112151;28;20059;-75
2022/04/11 04:37:34;;;;;;;4.70;2.40;;;1.20;99.90;;;;;;5113768;28;20488;-75
2022/04/11 04:40:00;;;;;;;6.40;2.92;;;1.20;99.90;;;;;;5114147;28;20570;-75
2022/04/11 04:42:29;;;;;;;5.35;2.65;;;1.20;99.90;;;;;;5112001;28;20083;-75
2022/04/11 04:44:55;;;;;;;4.72;2.63;;;1.30;99.90;;;;;;5114098;28;20036;-75
2022/04/11 04:47:22;;;;;;;4.78;2.60;;;1.30;99.90;;;;;;5112496;28;20054;-75
2022/04/11 04:49:48;;;;;;;9.77;2.80;;;1.30;99.90;;;;;;5111699;28;20398;-75
2022/04/11 04:52:14;;;;;;;5.15;2.40;;;1.30;99.90;;;;;;5113767;28;20070;-75
2022/04/11 04:54:40;;;;;;;5.93;2.75;;;1.40;99.90;;;;;;5095996;28;20055;-75
2022/04/11 04:57:07;;;;;;;5.95;2.70;;;1.40;99.90;;;;;;5112717;28;20403;-75
2022/04/11 04:59:33;;;;;;;6.90;2.30;;;1.40;99.90;;;;;;5114047;28;20136;-75
2022/04/11 05:01:59;;;;;;;2.67;2.33;;;1.50;99.90;;;;;;5113766;28;20032;-75
2022/04/11 05:04:25;;;;;;;4.97;2.80;;;1.50;99.90;;;;;;5113173;28;20044;-75
2022/04/11 05:06:51;;;;;;;11.60;2.95;;;1.50;99.90;;;;;;5113643;28;20039;-75
2022/04/11 05:09:17;;;;;;;6.43;2.22;;;1.50;99.90;;;;;;5111749;28;20486;-75
2022/04/11 05:11:43;;;;;;;8.85;3.72;;;1.60;99.90;;;;;;5112414;28;20084;-75
2022/04/11 05:14:09;;;;;;;5.65;2.42;;;1.60;99.90;;;;;;5112182;28;20075;-75
2022/04/11 05:16:35;;;;;;;9.95;2.45;;;1.60;99.90;;;;;;5112104;28;20115;-75
2022/04/11 05:19:00;;;;;;;7.13;2.90;;;1.70;99.90;;;;;;5113456;28;20501;-75
2022/04/11 05:21:26;;;;;;;6.88;3.42;;;1.70;99.90;;;;;;5113753;28;20062;-78
2022/04/11 05:23:52;;;;;;;4.70;2.72;;;1.70;99.90;;;;;;5111833;28;20133;-76
2022/04/11 05:26:18;;;;;;;7.60;3.35;;;1.80;99.90;;;;;;5113756;28;20054;-76
2022/04/11 05:28:45;;;;;;;8.82;2.63;;;1.80;99.90;;;;;;5113460;28;20394;-76
2022/04/11 05:31:11;;;;;;;6.43;2.95;;;1.80;99.90;;;;;;5112961;28;20036;-76
2022/04/11 05:33:36;;;;;;;6.13;2.85;;;1.90;99.90;;;;;;5113726;28;20055;-76
2022/04/11 05:36:02;;;;;;;11.07;4.00;;;1.90;99.90;;;;;;5113685;28;20114;-75
2022/04/11 05:38:28;;;;;;;6.63;3.10;;;1.90;99.90;;;;;;5111739;28;20044;-75
2022/04/11 05:40:56;;;;;;;6.03;2.90;;;2.00;99.90;;;;;;5112114;28;20050;-76
2022/04/11 05:43:22;;;;;;;9.25;2.58;;;2.00;99.90;;;;;;5112180;28;20027;-75
2022/04/11 05:45:48;;;;;;;6.50;2.70;;;2.10;99.90;;;;;;5111039;28;20521;-75
2022/04/11 05:48:14;;;;;;;4.72;2.42;;;2.10;99.90;;;;;;5113182;28;20055;-76
2022/04/11 05:50:39;;;;;;;8.40;2.72;;;2.10;99.90;;;;;;5111681;28;20130;-75
2022/04/11 05:53:05;;;;;;;5.75;2.50;;;2.20;99.90;;;;;;5110670;28;20047;-75
2022/04/11 05:55:31;;;;;;;6.18;2.35;;;2.20;99.90;;;;;;5112384;28;20134;-74
2022/04/11 05:57:57;;;;;;;4.90;2.95;;;2.20;99.90;;;;;;5117047;28;20027;-76
2022/04/11 06:00:23;;;;;;;6.88;3.17;;;2.30;99.90;;;;;;5114996;28;20402;-76
2022/04/11 06:02:49;;;;;;;8.80;3.15;;;2.30;99.90;;;;;;5115417;28;20288;-75
2022/04/11 06:05:14;;;;;;;4.05;2.50;;;2.40;99.90;;;;;;5117035;28;20058;-76
2022/04/11 06:07:41;;;;;;;5.70;2.50;;;2.40;99.90;;;;;;5115816;28;20075;-75
2022/04/11 06:10:07;;;;;;;6.93;2.85;;;2.50;99.90;;;;;;5116615;28;20035;-75
2022/04/11 06:12:34;;;;;;;7.60;2.70;;;2.50;99.90;;;;;;5132089;27;20051;-75
2022/04/11 06:14:59;;;;;;;7.80;2.75;;;2.60;99.90;;;;;;5115246;28;20104;-75
2022/04/11 06:17:25;;;;;;;6.57;3.10;;;2.60;99.90;;;;;;5115519;28;20035;-75
2022/04/11 06:19:55;;;;;;;9.98;2.97;;;2.60;99.90;;;;;;5115662;28;20474;-75
2022/04/11 06:22:21;;;;;;;6.82;2.97;;;2.70;99.90;;;;;;5116727;28;20112;-75
2022/04/11 06:24:49;;;;;;;4.72;2.65;;;2.70;99.90;;;;;;5116374;27;20072;-75
2022/04/11 06:27:15;;;;;;;11.18;3.10;;;2.80;99.90;;;;;;5115936;28;20039;-76
2022/04/11 06:29:42;;;;;;;8.15;3.15;;;2.90;99.90;;;;;;5114349;28;20047;-75
2022/04/11 06:32:08;;;;;;;4.50;2.55;;;2.90;99.90;;;;;;5113983;28;20043;-76
2022/04/11 06:34:35;;;;;;;7.65;2.95;;;3.00;99.90;;;;;;5113572;28;20048;-75
2022/04/11 06:37:03;;;;;;;10.52;3.45;;;3.00;99.90;;;;;;5114880;28;20083;-76
2022/04/11 06:39:28;;;;;;;6.45;2.80;;;3.10;99.90;;;;;;5115689;28;20375;-76
2022/04/11 06:41:54;;;;;;;20.13;5.30;;;3.20;99.90;;;;;;5114124;28;20100;-76
2022/04/11 06:44:20;;;;;;;9.75;2.80;;;3.20;99.90;;;;;;5114310;28;20474;-76
2022/04/11 06:46:46;;;;;;;11.23;2.78;;;3.30;99.90;;;;;;5114476;28;20052;-76
2022/04/11 06:49:12;;;;;;;5.05;2.88;;;3.40;99.90;;;;;;5114822;28;20047;-76
2022/04/11 06:51:38;;;;;;;9.48;2.78;;;3.40;99.90;;;;;;5114401;28;20039;-76
2022/04/11 06:54:04;;;;;;;13.80;3.50;;;3.50;99.90;;;;;;5114622;28;20050;-76
2022/04/11 06:56:30;;;;;;;6.22;3.00;;;3.50;99.90;;;;;;5115147;28;20105;-76
2022/04/11 06:58:56;;;;;;;5.70;3.13;;;3.60;99.90;;;;;;5115427;28;20075;-76
2022/04/11 07:01:22;;;;;;;5.80;2.80;;;3.70;99.90;;;;;;5114473;28;20048;-76
2022/04/11 07:03:48;;;;;;;7.93;2.90;;;3.70;99.90;;;;;;5113290;28;20102;-76
2022/04/11 07:06:14;;;;;;;5.95;2.85;;;3.80;99.90;;;;;;5114447;28;20159;-76
2022/04/11 07:08:40;;;;;;;4.13;2.80;;;3.90;99.90;;;;;;5113671;28;20088;-76
2022/04/11 07:11:06;;;;;;;7.07;2.53;;;4.00;99.90;;;;;;5114491;28;20044;-76
2022/04/11 07:13:33;;;;;;;6.35;2.72;;;4.00;99.90;;;;;;5115405;28;20105;-76
2022/04/11 07:15:59;;;;;;;6.05;3.05;;;4.10;99.90;;;;;;5113349;28;20075;-76
2022/04/11 07:18:28;;;;;;;4.55;2.80;;;4.20;99.90;;;;;;5114007;28;20098;-76
2022/04/11 07:20:54;;;;;;;5.65;2.83;;;4.30;99.90;;;;;;5115377;28;20048;-76
2022/04/11 07:23:21;;;;;;;10.52;3.47;;;4.40;99.90;;;;;;5113052;28;20040;-76
2022/04/11 07:25:47;;;;;;;8.18;2.92;;;4.50;99.90;;;;;;5114217;28;20087;-76
2022/04/11 07:28:13;;;;;;;7.40;2.78;;;4.60;99.90;;;;;;5113535;28;20044;-76
2022/04/11 07:30:40;;;;;;;7.07;2.70;;;4.70;99.90;;;;;;5113744;28;20040;-76
2022/04/11 07:33:08;;;;;;;8.18;2.58;;;4.80;99.90;;;;;;5114738;28;20039;-76
2022/04/11 07:35:34;;;;;;;3.88;2.58;;;4.90;99.90;;;;;;5114692;28;20126;-76
2022/04/11 07:38:01;;;;;;;10.55;3.38;;;5.00;99.90;;;;;;5112937;28;20123;-76
2022/04/11 07:40:28;;;;;;;9.25;2.50;;;5.10;99.90;;;;;;5113872;28;20047;-76
2022/04/11 07:42:54;;;;;;;6.45;2.30;;;5.20;99.90;;;;;;5114577;28;20499;-76
2022/04/11 07:45:21;;;;;;;6.40;2.40;;;5.30;99.90;;;;;;5095835;28;20513;-76
2022/04/11 07:47:48;;;;;;;9.93;2.30;;;5.40;99.90;;;;;;5112738;28;20417;-76
2022/04/11 07:50:14;;;;;;;8.70;2.25;;;5.60;99.90;;;;;;5114587;28;20059;-76
2022/04/11 07:52:41;;;;;;;6.85;2.53;;;5.60;99.90;;;;;;5112208;28;20625;-76
2022/04/11 07:55:09;;;;;;;6.13;2.85;;;5.80;99.90;;;;;;5113289;28;20499;-76
2022/04/11 07:57:35;;;;;;;7.22;2.03;;;5.90;99.90;;;;;;5113138;28;20509;-76
2022/04/11 08:00:02;;;;;;;4.03;2.00;;;6.00;99.90;;;;;;5112191;28;20054;-76
2022/04/11 08:02:28;;;;;;;2.92;1.50;;;6.10;99.90;;;;;;5095964;28;20043;-76
2022/04/11 08:04:54;;;;;;;3.42;1.70;;;6.20;99.90;;;;;;5112837;28;20064;-76
2022/04/11 08:07:20;;;;;;;7.00;2.40;;;6.40;99.90;;;;;;5113961;27;20039;-76
2022/04/11 08:09:48;;;;;;;9.50;2.20;;;6.40;99.90;;;;;;5112843;28;20047;-76
2022/04/11 08:12:13;;;;;;;7.20;2.20;;;6.50;99.90;;;;;;5095705;28;20380;-76
2022/04/11 08:14:40;;;;;;;5.70;2.10;;;6.70;99.90;;;;;;5112848;28;20138;-76
2022/04/11 08:17:06;;;;;;;5.38;2.17;;;6.80;99.90;;;;;;5113068;28;20112;-75
2022/04/11 08:19:32;;;;;;;6.05;2.00;;;6.90;99.90;;;;;;5094832;28;20048;-76
2022/04/11 08:21:58;;;;;;;6.80;2.08;;;7.10;99.90;;;;;;5114172;28;20372;-76
2022/04/11 08:24:24;;;;;;;5.85;1.83;;;7.20;99.90;;;;;;5112535;28;20054;-76
2022/04/11 08:26:50;;;;;;;8.48;2.42;;;7.40;99.90;;;;;;5113071;28;20047;-76
2022/04/11 08:29:17;;;;;;;11.63;2.30;;;7.50;99.90;;;;;;5114027;28;20157;-76
2022/04/11 08:31:44;;;;;;;5.75;2.10;;;7.50;99.90;;;;;;5113323;28;20091;-77
2022/04/11 08:34:10;;;;;;;9.88;2.28;;;7.50;99.90;;;;;;5117281;27;20120;-76
2022/04/11 08:36:36;;;;;;;5.00;2.10;;;7.50;99.90;;;;;;5118529;27;20035;-76
2022/04/11 08:39:02;;;;;;;6.70;2.05;;;7.60;99.90;;;;;;5112818;28;20043;-77
2022/04/11 08:41:36;;;;;;;4.03;1.92;;;7.80;99.90;;;;;;5113133;28;20124;-76
2022/04/11 08:44:04;;;;;;;7.40;2.17;;;7.90;99.90;;;;;;5112665;28;20047;-77
2022/04/11 08:46:34;;;;;;;6.82;3.42;;;8.10;99.90;;;;;;5112043;28;20043;-77
2022/04/11 08:49:03;;;;;;;5.53;2.17;;;8.20;99.90;;;;;;5118440;27;20059;-76
2022/04/11 08:51:33;;;;;;;7.40;2.17;;;8.30;99.90;;;;;;5126202;28;20119;-77
2022/04/11 08:54:04;;;;;;;8.70;2.10;;;8.40;99.90;;;;;;5126792;27;20124;-77
2022/04/11 08:56:30;;;;;;;6.55;2.45;;;8.40;99.90;;;;;;5111093;28;20051;-76
2022/04/11 08:58:56;;;;;;;4.40;1.63;;;8.60;99.90;;;;;;5113270;28;20051;-77
2022/04/11 09:01:23;;;;;;;7.45;2.20;;;8.70;99.90;;;;;;5111616;28;20039;-77
2022/04/11 09:03:50;;;;;;;7.18;1.60;;;8.80;99.90;;;;;;5113428;28;20054;-77
2022/04/11 09:06:17;;;;;;;5.93;2.15;;;8.90;99.90;;;;;;5113523;28;20092;-77
2022/04/11 09:08:51;;;;;;;8.52;3.15;;;9.00;99.90;;;;;;5112804;28;20047;-76
2022/04/11 09:11:36;;;;;;;4.03;1.20;;;9.10;99.90;;;;;;5113308;28;20499;-76
2022/04/11 09:14:07;;;;;;;7.45;2.58;;;9.20;99.90;;;;;;5112535;28;20127;-76
2022/04/11 09:16:52;;;;;;;4.32;1.50;;;9.40;99.90;;;;;;5112764;28;20028;-76
2022/04/11 09:19:23;;;;;;;4.88;1.73;;;9.50;99.90;;;;;;5112224;28;20109;-77
2022/04/11 09:21:50;;;;;;;11.95;1.75;;;9.60;99.90;;;;;;5113146;28;20494;-77
2022/04/11 09:24:20;;;;;;;2.95;1.40;;;9.70;99.90;;;;;;5113008;28;20108;-77
2022/04/11 09:27:04;;;;;;;3.95;1.50;;;9.70;99.90;;;;;;5112292;28;20160;-77
2022/04/11 09:29:42;;;;;;;4.18;1.38;;;9.80;99.90;;;;;;5111015;28;20071;-76
2022/04/11 09:32:09;;;;;;;4.97;1.80;;;9.80;99.90;;;;;;5115922;28;20449;-76
2022/04/11 09:34:35;;;;;;;6.00;1.25;;;9.90;99.90;;;;;;5115569;28;20413;-76
2022/04/11 09:37:02;;;;;;;4.43;1.77;;;9.90;99.90;;;;;;5114579;28;20063;-77
2022/04/11 09:39:33;;;;;;;7.70;1.58;;;10.10;99.90;;;;;;5099036;28;20048;-77
2022/04/11 09:42:00;;;;;;;3.60;1.52;;;10.20;99.90;;;;;;5116217;28;20048;-77
2022/04/11 09:44:29;;;;;;;5.72;1.70;;;10.30;99.90;;;;;;5116243;28;20050;-77
2022/04/11 09:47:00;;;;;;;4.53;1.85;;;10.40;99.90;;;;;;5115576;28;20118;-76
2022/04/11 09:49:27;;;;;;;4.40;1.85;;;10.50;99.90;;;;;;5116341;28;20059;-76
2022/04/11 09:52:11;;;;;;;5.13;2.15;;;10.60;99.90;;;;;;5116544;28;20036;-76
2022/04/11 09:54:40;;;;;;;4.90;1.73;;;10.60;99.90;;;;;;5115375;28;20043;-76
2022/04/11 09:57:06;;;;;;;5.82;1.83;;;10.70;99.90;;;;;;5115530;28;20118;-76
2022/04/11 09:59:34;;;;;;;3.25;2.28;;;10.80;99.90;;;;;;5114951;28;20086;-77
2022/04/11 10:02:00;;;;;;;4.28;2.20;;;10.90;99.90;;;;;;5116604;28;20050;-76
2022/04/11 10:04:27;;;;;;;4.72;2.45;;;11.00;99.90;;;;;;5098663;28;20040;-76
2022/04/11 10:06:53;;;;;;;2.78;2.08;;;11.10;99.90;;;;;;5115813;28;20502;-76
2022/04/11 10:09:23;;;;;;;4.28;2.10;;;11.20;99.90;;;;;;5116192;28;20087;-76
2022/04/11 10:11:52;;;;;;;2.33;1.65;;;11.40;99.90;;;;;;5114620;28;20052;-75
2022/04/11 10:14:23;;;;;;;3.80;1.73;;;11.50;99.90;;;;;;5116784;28;20039;-76
2022/04/11 10:17:01;;;;;;;13.13;2.10;;;11.70;99.90;;;;;;5115381;28;20050;-76
2022/04/11 10:19:29;;;;;;;3.78;1.70;;;11.90;99.90;;;;;;5114256;28;20051;-76
2022/04/11 10:22:04;;;;;;;4.97;2.55;;;12.10;99.90;;;;;;5116593;28;20167;-76
2022/04/11 10:24:40;;;;;;;;;;;12.30;99.90;;;;;;5115666;28;20093;-76
2022/04/11 10:27:22;;;;;;;6.70;2.00;;;12.50;96.50;;;;;;5113341;28;19926;-76
2022/04/11 10:29:52;;;;;;;4.57;1.85;;;12.60;98.90;;;;;;5114429;28;20043;-76
2022/04/11 10:32:26;;;;;;;5.03;2.38;;;12.70;98.90;;;;;;5116114;28;20397;-76
2022/04/11 10:35:31;;;;;;;5.43;2.00;;;12.80;97.30;;;;;;5115155;28;20043;-77
2022/04/11 10:37:57;;;;;;;7.97;2.20;;;12.80;97.00;;;;;;5090128;28;20044;-76
2022/04/11 10:40:23;;;;;;;3.65;2.10;;;12.90;96.90;;;;;;5113861;28;20165;-76
2022/04/11 10:43:11;;;;;;;5.15;2.20;;;13.00;96.00;;;;;;5114446;28;20432;-76
2022/04/11 10:46:03;;;;;;;3.85;2.05;;;13.00;91.80;;;;;;5115972;28;20036;-76
2022/04/11 10:48:59;;;;;;;7.00;2.40;;;13.00;92.50;;;;;;5110352;28;20499;-76
2022/04/11 10:51:25;;;;;;;3.53;1.77;;;13.20;94.50;;;;;;5115481;28;20046;-76
2022/04/11 10:54:17;;;;;;;4.22;2.00;;;13.30;94.50;;;;;;5113788;28;20043;-76
2022/04/11 10:56:53;;;;;;;6.63;2.70;;;13.40;91.70;;;;;;5115313;28;20097;-76
2022/04/11 10:59:26;;;;;;;9.45;3.42;;;13.50;92.90;;;;;;5114381;28;20055;-76
2022/04/11 11:01:59;;;;;;;6.57;2.47;;;13.70;92.70;;;;;;5114655;28;20031;-77
2022/04/11 11:04:30;;;;;;;5.85;2.10;;;13.80;91.70;;;;;;5115404;28;20153;-76
2022/04/11 11:07:28;;;;;;;7.95;2.42;;;13.80;91.50;;;;;;5114382;28;20040;-76
2022/04/11 11:09:59;;;;;;;6.57;2.05;;;13.90;91.90;;;;;;5113327;28;20048;-76
2022/04/11 11:12:27;;;;;;;5.72;2.63;;;13.70;90.70;;;;;;5115469;28;20498;-76
2022/04/11 11:14:54;;;;;;;4.00;1.80;;;13.70;91.80;;;;;;5114676;28;20044;-76
2022/04/11 11:17:19;;;;;;;12.45;2.83;;;13.80;91.10;;;;;;5113922;28;20043;-76
2022/04/11 11:20:03;;;;;;;4.90;2.50;;;13.90;90.60;;;;;;5115185;28;20040;-76
2022/04/11 11:22:33;;;;;;;3.92;2.30;;;14.00;91.20;;;;;;5113466;28;20639;-76
2022/04/11 11:25:28;;;;;;;4.22;2.25;;;14.00;89.40;;;;;;5115320;28;20448;-76
2022/04/11 11:27:55;;;;;;;4.20;2.00;;;14.10;88.10;;;;;;5097132;28;20051;-76
2022/04/11 11:30:21;;;;;;;8.32;2.40;;;14.10;85.00;;;;;;5113769;28;20040;-76
2022/04/11 11:32:47;;;;;;;5.65;3.10;;;14.00;84.20;;;;;;5113956;28;20046;-76
2022/04/11 11:35:13;;;;;;;5.03;2.85;;;14.10;84.80;;;;;;5114615;28;20517;-76
2022/04/11 11:37:39;;;;;;;5.22;3.17;;;14.10;85.80;;;;;;5112874;28;20047;-76
2022/04/11 11:40:06;;;;;;;9.13;3.53;;;14.10;84.90;;;;;;5114173;28;20085;-76
2022/04/11 11:42:37;;;;;;;9.13;3.00;;;14.30;81.10;;;;;;5113651;28;20043;-76
2022/04/11 11:45:04;;;;;;;9.52;2.90;;;14.40;79.40;;;;;;5113928;28;20044;-76
2022/04/11 11:47:29;;;;;;;7.25;3.45;;;14.50;79.60;;;;;;5114574;28;20051;-76
2022/04/11 11:50:06;;;;;;;8.63;3.55;;;14.70;79.30;;;;;;5096365;28;20056;-76
2022/04/11 11:52:32;;;;;;;7.15;3.40;;;14.70;75.40;;;;;;5113497;28;20039;-76
2022/04/11 11:54:59;;;;;;;10.60;3.30;;;14.90;76.40;;;;;;5112672;28;20083;-76
2022/04/11 11:57:27;;;;;;;7.95;3.15;;;14.90;75.90;;;;;;5112764;28;20051;-76
2022/04/11 11:59:59;;;;;;;6.00;3.15;;;15.00;73.50;;;;;;5113022;28;20064;-76
2022/04/11 12:05:20;;;;;;;9.65;3.78;;;15.10;73.60;;;;;;5112240;28;20418;-76
2022/04/11 12:07:48;;;;;;;6.43;3.65;;;15.20;73.50;;;;;;5112958;28;20105;-76
2022/04/11 12:10:15;;;;;;;7.65;4.05;;;15.20;72.80;;;;;;5095382;28;20529;-76
2022/04/11 12:12:43;;;;;;;9.10;3.35;;;15.30;73.00;;;;;;5113260;28;20043;-76
2022/04/11 12:15:10;;;;;;;5.53;3.15;;;15.30;71.40;;;;;;5113090;28;20059;-76
2022/04/11 12:17:47;;;;;;;5.50;2.97;;;15.30;71.90;;;;;;5113407;28;20086;-76
2022/04/11 12:20:21;;;;;;;7.90;3.63;;;15.40;70.50;;;;;;5112613;28;20039;-76
2022/04/11 12:23:10;;;;;;;7.63;3.17;;;15.40;70.60;;;;;;5112904;28;20047;-76
2022/04/11 12:25:50;;;;;;;7.45;3.10;;;15.60;68.50;;;;;;5091855;28;20040;-76
2022/04/11 12:28:25;;;;;;;5.43;3.20;;;15.60;68.90;;;;;;5086344;28;20056;-76
2022/04/11 12:31:05;;;;;;;8.82;3.42;;;15.50;65.10;;;;;;5112642;28;20055;-76
2022/04/11 12:33:43;;;;;;;6.40;3.60;;;15.50;68.80;;;;;;5113243;28;20058;-75
2022/04/11 12:36:26;;;;;;;4.75;3.53;;;15.40;67.70;;;;;;5101174;28;20056;-76
2022/04/11 12:38:54;;;;;;;5.72;3.35;;;15.40;69.70;;;;;;5093770;28;20090;-76
2022/04/11 12:41:27;;;;;;;4.90;3.17;;;15.40;69.80;;;;;;5102051;28;20046;-76
2022/04/11 12:44:12;;;;;;;6.75;3.42;;;15.40;68.90;;;;;;5113571;28;20051;-76
2022/04/11 12:46:45;;;;;;;8.90;2.83;;;15.40;63.50;;;;;;5116683;27;20036;-76
2022/04/11 12:49:19;;;;;;;4.80;2.95;;;15.40;68.90;;;;;;5115379;27;20558;-76
2022/04/11 12:52:04;;;;;;;8.13;3.30;;;15.20;69.30;;;;;;5112598;28;20079;-76
2022/04/11 12:54:43;;;;;;;10.27;3.45;;;15.30;67.80;;;;;;5112022;28;20043;-76
2022/04/11 12:57:29;;;;;;;9.32;3.25;;;15.40;67.70;;;;;;5112551;28;20093;-76
2022/04/11 12:59:56;;;;;;;8.52;3.47;;;15.20;67.30;;;;;;5112409;28;20047;-76
2022/04/11 13:02:25;;;;;;;7.93;3.95;;;15.10;67.40;;;;;;5094790;28;20093;-76